Time;durP1;ratioP1;P1;durP2;ratioP2;P2;SDS_P1;SDS_P2;PMS_P1;PMS_P2;Temp;Humidity;BMP_temperature;BMP_pressure;BME280_temperature;BME280_humidity;BME280_pressure;Samples;Min_cycle;Max_cycle;Signal;HPM_P1;HPM_P2
2023/03/13 00:01:39;;;;;;;73.28;45.25;;;2.00;99.90;;;;;;4936081;29;20098;-76
2023/03/13 00:04:06;;;;;;;89.70;54.45;;;1.90;99.90;;;;;;4933548;29;20051;-76
2023/03/13 00:06:34;;;;;;;89.88;55.90;;;2.00;99.90;;;;;;4935046;29;20036;-76
2023/03/13 00:09:01;;;;;;;112.25;58.47;;;2.00;99.90;;;;;;4936103;29;20051;-73
2023/03/13 00:11:27;;;;;;;98.30;52.58;;;2.00;99.90;;;;;;4936327;29;20379;-75
2023/03/13 00:13:54;;;;;;;105.22;56.92;;;2.00;99.90;;;;;;4936653;29;20035;-78
2023/03/13 00:16:20;;;;;;;90.88;53.78;;;2.00;99.90;;;;;;4934730;29;20024;-76
2023/03/13 00:18:47;;;;;;;90.63;54.97;;;2.00;99.90;;;;;;4926787;29;20036;-77
2023/03/13 00:21:14;;;;;;;110.93;63.25;;;2.00;99.90;;;;;;4933025;29;20016;-76
2023/03/13 00:23:40;;;;;;;92.20;55.60;;;2.00;99.90;;;;;;4935689;29;20027;-76
2023/03/13 00:26:08;;;;;;;64.93;37.97;;;1.80;99.90;;;;;;4935796;29;20026;-77
2023/03/13 00:28:36;;;;;;;51.53;32.58;;;1.80;99.90;;;;;;4935523;29;20039;-74
2023/03/13 00:31:08;;;;;;;53.63;35.13;;;1.70;99.90;;;;;;4949361;29;20028;-77
2023/03/13 00:33:36;;;;;;;84.38;48.30;;;1.70;99.90;;;;;;4934353;29;20090;-74
2023/03/13 00:36:05;;;;;;;76.85;51.15;;;1.70;99.90;;;;;;4934333;29;20027;-78
2023/03/13 00:38:32;;;;;;;69.68;47.47;;;1.70;99.90;;;;;;4935769;29;20473;-78
2023/03/13 00:41:04;;;;;;;56.50;36.85;;;1.70;99.90;;;;;;4934254;29;20024;-77
2023/03/13 00:43:32;;;;;;;53.55;32.33;;;1.70;99.90;;;;;;4934167;29;20119;-77
2023/03/13 00:46:00;;;;;;;47.17;29.10;;;1.70;99.90;;;;;;4934199;29;20418;-75
2023/03/13 00:48:26;;;;;;;44.80;28.35;;;1.70;99.90;;;;;;4949024;29;20048;-78
2023/03/13 00:50:53;;;;;;;46.35;29.10;;;1.60;99.90;;;;;;4935524;29;20035;-77
2023/03/13 00:53:19;;;;;;;52.38;29.05;;;1.70;99.90;;;;;;4934078;29;20032;-77
2023/03/13 00:55:52;;;;;;;42.70;24.73;;;1.60;99.90;;;;;;4934136;29;20070;-78
2023/03/13 00:58:18;;;;;;;47.10;25.70;;;1.50;99.90;;;;;;4936800;29;20031;-76
2023/03/13 01:00:44;;;;;;;38.63;23.17;;;1.50;99.90;;;;;;4939440;29;20082;-77
2023/03/13 01:03:11;;;;;;;40.70;23.73;;;1.40;99.90;;;;;;4938010;29;20028;-76
2023/03/13 01:05:37;;;;;;;36.63;21.33;;;1.40;99.90;;;;;;4939358;29;20389;-77
2023/03/13 01:08:03;;;;;;;54.03;30.90;;;1.40;99.90;;;;;;4937585;29;20036;-72
2023/03/13 01:10:29;;;;;;;45.45;25.58;;;1.40;99.90;;;;;;4939358;29;20020;-76
2023/03/13 01:12:55;;;;;;;44.20;27.10;;;1.50;99.90;;;;;;4937807;29;20524;-76
2023/03/13 01:15:21;;;;;;;49.95;24.40;;;1.50;99.90;;;;;;4939109;29;20030;-76
2023/03/13 01:17:48;;;;;;;40.78;23.88;;;1.50;99.90;;;;;;4938964;29;20114;-74
2023/03/13 01:20:14;;;;;;;36.33;21.08;;;1.60;99.90;;;;;;4938920;29;20103;-76
2023/03/13 01:22:40;;;;;;;35.28;18.70;;;1.60;99.90;;;;;;4939023;29;20501;-75
2023/03/13 01:25:06;;;;;;;35.00;19.60;;;1.60;99.90;;;;;;4937066;29;20126;-78
2023/03/13 01:27:33;;;;;;;35.80;23.70;;;1.60;99.90;;;;;;4937338;29;20493;-78
2023/03/13 01:29:59;;;;;;;40.30;23.75;;;1.60;99.90;;;;;;4937693;29;20038;-79
2023/03/13 01:32:25;;;;;;;34.22;21.65;;;1.60;99.90;;;;;;4937264;29;20032;-79
2023/03/13 01:34:51;;;;;;;35.20;19.90;;;1.60;99.90;;;;;;4938840;29;20099;-77
2023/03/13 01:37:17;;;;;;;37.78;20.45;;;1.50;99.90;;;;;;4936914;29;20159;-76
2023/03/13 01:39:42;;;;;;;30.77;18.25;;;1.50;99.90;;;;;;4927689;29;20075;-77
2023/03/13 01:42:09;;;;;;;30.77;19.13;;;1.50;99.90;;;;;;4938369;29;20108;-77
2023/03/13 01:44:52;;;;;;;30.75;18.13;;;1.60;99.90;;;;;;4938879;29;20393;-77
2023/03/13 01:47:18;;;;;;;32.70;17.90;;;1.50;99.90;;;;;;4936935;29;20047;-75
2023/03/13 01:50:03;;;;;;;43.70;26.42;;;1.50;99.90;;;;;;4937022;29;20034;-77
2023/03/13 01:52:40;;;;;;;35.50;21.02;;;1.50;99.90;;;;;;4938631;29;20381;-76
2023/03/13 01:55:16;;;;;;;30.45;18.33;;;1.50;99.90;;;;;;4937030;29;20020;-77
2023/03/13 01:57:50;;;;;;;36.33;18.88;;;1.60;99.90;;;;;;4937006;29;20043;-76
2023/03/13 02:00:23;;;;;;;35.28;20.55;;;1.60;99.90;;;;;;4952390;28;20047;-74
2023/03/13 02:02:53;;;;;;;34.80;19.25;;;1.60;99.90;;;;;;4938201;29;20131;-75
2023/03/13 02:05:21;;;;;;;33.13;20.20;;;1.60;99.90;;;;;;4938048;29;20541;-75
2023/03/13 02:07:53;;;;;;;30.85;19.10;;;1.60;99.90;;;;;;4936789;29;20583;-73
2023/03/13 02:10:21;;;;;;;48.55;27.67;;;1.60;99.90;;;;;;4952543;28;20115;-76
2023/03/13 02:12:48;;;;;;;42.72;26.17;;;1.60;99.90;;;;;;4936310;29;20032;-77
2023/03/13 02:15:17;;;;;;;41.15;24.73;;;1.50;99.90;;;;;;4938069;29;20078;-77
2023/03/13 02:17:44;;;;;;;44.38;27.70;;;1.50;99.90;;;;;;4936113;29;20050;-77
2023/03/13 02:20:11;;;;;;;44.50;28.20;;;1.50;99.90;;;;;;4936797;29;20378;-77
2023/03/13 02:23:12;;;;;;;45.50;27.38;;;1.60;99.90;;;;;;4937866;29;20083;-77
2023/03/13 02:25:52;;;;;;;52.17;30.17;;;1.50;99.90;;;;;;4952372;29;20036;-77
2023/03/13 02:28:32;;;;;;;57.45;33.22;;;1.50;99.90;;;;;;4936035;29;20536;-76
2023/03/13 02:31:00;;;;;;;60.47;33.50;;;1.60;99.90;;;;;;4936290;29;20023;-79
2023/03/13 02:33:31;;;;;;;38.90;25.73;;;1.60;99.90;;;;;;4936296;29;20032;-78
2023/03/13 02:35:59;;;;;;;41.22;25.27;;;1.50;99.90;;;;;;4936039;29;20517;-78
2023/03/13 02:38:28;;;;;;;49.85;31.65;;;1.50;99.90;;;;;;4936344;29;20042;-76
2023/03/13 02:40:55;;;;;;;50.75;30.30;;;1.50;99.90;;;;;;4936349;29;20027;-73
2023/03/13 02:43:37;;;;;;;52.60;29.52;;;1.50;99.90;;;;;;4936187;29;20399;-77
2023/03/13 02:46:06;;;;;;;48.38;29.88;;;1.50;99.90;;;;;;4926613;29;20481;-76
2023/03/13 02:48:40;;;;;;;44.35;29.17;;;1.50;99.90;;;;;;4952030;28;20505;-77
2023/03/13 02:51:14;;;;;;;46.85;25.58;;;1.50;99.90;;;;;;4951910;28;20492;-77
2023/03/13 02:53:42;;;;;;;39.13;23.90;;;1.50;99.90;;;;;;4952093;28;20036;-78
2023/03/13 02:56:08;;;;;;;40.35;22.33;;;1.50;99.90;;;;;;4927438;29;20022;-75
2023/03/13 02:58:39;;;;;;;43.05;21.85;;;1.50;99.90;;;;;;4935585;29;20118;-77
2023/03/13 03:01:06;;;;;;;31.48;19.67;;;1.60;99.90;;;;;;4935918;29;20135;-76
2023/03/13 03:03:35;;;;;;;36.45;18.63;;;1.60;99.90;;;;;;4948091;29;20032;-75
2023/03/13 03:06:04;;;;;;;36.35;20.67;;;1.60;99.90;;;;;;4920422;29;20098;-73
2023/03/13 03:08:30;;;;;;;32.30;19.25;;;1.60;99.90;;;;;;4936882;29;20406;-77
2023/03/13 03:10:56;;;;;;;32.85;18.17;;;1.60;99.90;;;;;;4935747;29;20038;-77
2023/03/13 03:13:23;;;;;;;35.20;20.35;;;1.60;99.90;;;;;;4935664;29;20032;-77
2023/03/13 03:15:49;;;;;;;33.80;19.77;;;1.60;99.90;;;;;;4951256;28;20077;-76
2023/03/13 03:18:15;;;;;;;31.52;16.85;;;1.70;99.90;;;;;;4935550;29;20028;-75
2023/03/13 03:20:41;;;;;;;31.15;18.58;;;1.70;99.90;;;;;;4937697;29;20517;-77
2023/03/13 03:23:07;;;;;;;29.10;18.35;;;1.70;99.90;;;;;;4945343;29;20027;-77
2023/03/13 03:25:33;;;;;;;31.52;16.17;;;1.70;99.90;;;;;;4936841;29;20552;-77
2023/03/13 03:27:59;;;;;;;30.73;16.23;;;1.70;99.90;;;;;;4935290;29;20040;-77
2023/03/13 03:30:25;;;;;;;28.75;15.40;;;1.70;99.90;;;;;;4935188;29;20167;-77
2023/03/13 03:32:51;;;;;;;32.13;16.00;;;1.70;99.90;;;;;;4936529;29;20110;-77
2023/03/13 03:35:19;;;;;;;28.33;15.93;;;1.70;99.90;;;;;;4935017;29;20119;-77
2023/03/13 03:37:45;;;;;;;30.02;15.07;;;1.70;99.90;;;;;;4947458;29;20109;-76
2023/03/13 03:40:11;;;;;;;23.40;14.48;;;1.70;99.90;;;;;;4949304;29;20030;-74
2023/03/13 03:42:37;;;;;;;26.27;13.95;;;1.70;99.90;;;;;;4935146;29;20064;-78
2023/03/13 03:45:03;;;;;;;24.77;13.98;;;1.70;99.90;;;;;;4951133;29;20047;-76
2023/03/13 03:47:29;;;;;;;26.77;13.93;;;1.80;99.90;;;;;;4936259;29;20039;-77
2023/03/13 03:49:56;;;;;;;27.15;15.10;;;1.70;99.90;;;;;;4934845;29;20076;-77
2023/03/13 03:52:21;;;;;;;23.25;13.60;;;1.70;99.90;;;;;;4951166;28;20119;-75
2023/03/13 03:54:47;;;;;;;26.98;15.32;;;1.70;99.90;;;;;;4934962;29;20028;-77
2023/03/13 03:57:14;;;;;;;31.73;15.80;;;1.60;99.90;;;;;;4934849;29;20047;-75
2023/03/13 03:59:43;;;;;;;28.75;16.65;;;1.60;99.90;;;;;;4935779;29;20075;-75
2023/03/13 04:02:10;;;;;;;27.35;15.63;;;1.60;99.90;;;;;;4934285;29;20504;-77
2023/03/13 04:04:36;;;;;;;25.38;14.90;;;1.60;99.90;;;;;;4934700;29;20124;-76
2023/03/13 04:07:06;;;;;;;24.55;14.57;;;1.60;99.90;;;;;;4934576;29;20028;-77
2023/03/13 04:09:33;;;;;;;31.67;16.85;;;1.50;99.90;;;;;;4934575;29;20036;-77
2023/03/13 04:12:01;;;;;;;33.90;19.90;;;1.50;99.90;;;;;;4934752;29;20024;-77
2023/03/13 04:14:29;;;;;;;35.10;18.55;;;1.50;99.90;;;;;;4934451;29;20189;-76
2023/03/13 04:16:56;;;;;;;36.45;23.00;;;1.40;99.90;;;;;;4933542;29;20038;-75
2023/03/13 04:19:22;;;;;;;42.55;23.90;;;1.40;99.90;;;;;;4934664;29;20040;-76
2023/03/13 04:21:48;;;;;;;55.72;31.75;;;1.30;99.90;;;;;;4934010;29;20046;-77
2023/03/13 04:24:17;;;;;;;68.82;39.97;;;1.10;99.90;;;;;;4950247;29;20032;-77
2023/03/13 04:26:44;;;;;;;46.25;24.83;;;0.90;99.90;;;;;;4934147;29;20083;-76
2023/03/13 04:29:10;;;;;;;39.00;22.83;;;1.00;99.90;;;;;;4934253;29;20085;-78
2023/03/13 04:31:59;;;;;;;45.08;28.48;;;0.90;99.90;;;;;;4876966;29;20060;-78
2023/03/13 04:34:38;;;;;;;36.90;21.55;;;0.70;99.90;;;;;;4877020;29;20534;-78
2023/03/13 04:37:13;;;;;;;41.90;23.83;;;0.50;99.90;;;;;;4861210;29;20140;-75
2023/03/13 04:40:12;;;;;;;37.53;18.17;;;0.50;99.90;;;;;;4858341;29;20349;-77
2023/03/13 04:43:07;;;;;;;26.15;13.35;;;0.40;99.90;;;;;;4858257;29;20088;-78
2023/03/13 04:45:55;;;;;;;30.48;17.55;;;0.50;99.90;;;;;;4867060;29;20033;-79
2023/03/13 04:48:39;;;;;;;36.95;15.70;;;0.60;99.90;;;;;;4868024;29;20041;-78
2023/03/13 04:51:24;;;;;;;31.67;17.35;;;0.70;99.90;;;;;;4864815;29;20033;-77
2023/03/13 04:54:09;;;;;;;36.35;16.63;;;0.70;99.90;;;;;;4864238;29;20123;-79
2023/03/13 04:56:55;;;;;;;29.42;15.57;;;0.80;99.90;;;;;;4855421;29;20085;-78
2023/03/13 04:59:24;;;;;;;26.15;13.73;;;0.80;99.90;;;;;;4857689;29;20401;-77
2023/03/13 05:02:05;;;;;;;27.67;14.02;;;0.90;99.90;;;;;;4857856;29;20072;-78
2023/03/13 05:04:57;;;;;;;22.65;13.48;;;1.00;99.90;;;;;;4843864;29;20417;-74
2023/03/13 05:07:29;;;;;;;38.03;16.38;;;1.10;99.90;;;;;;4858160;29;20097;-78
2023/03/13 05:10:06;;;;;;;32.88;14.45;;;1.10;99.90;;;;;;4914100;29;20035;-78
2023/03/13 05:12:32;;;;;;;36.45;16.65;;;1.20;99.90;;;;;;4933109;29;20048;-78
2023/03/13 05:15:17;;;;;;;35.28;16.90;;;1.20;99.90;;;;;;4932632;29;20054;-77
2023/03/13 05:18:01;;;;;;;32.95;17.50;;;1.20;99.90;;;;;;4934738;29;20055;-79
2023/03/13 05:20:47;;;;;;;27.08;15.98;;;1.40;99.90;;;;;;4935163;29;20516;-79
2023/03/13 05:23:36;;;;;;;31.00;15.73;;;1.50;99.90;;;;;;4888096;29;20041;-83
2023/03/13 05:26:23;;;;;;;36.20;15.55;;;1.60;99.90;;;;;;4840100;29;20039;-80
2023/03/13 05:29:01;;;;;;;40.78;19.77;;;1.70;99.90;;;;;;4836008;29;20164;-81
2023/03/13 05:31:47;;;;;;;59.28;35.60;;;1.80;99.90;;;;;;4785930;29;20597;-78
2023/03/13 05:34:28;;;;;;;35.40;21.40;;;1.90;99.90;;;;;;4772574;30;20070;-75
2023/03/13 05:37:12;;;;;;;37.88;20.13;;;2.00;99.90;;;;;;4789309;29;20042;-75
2023/03/13 05:39:59;;;;;;;52.20;25.90;;;2.20;99.90;;;;;;4771898;29;20134;-80
2023/03/13 05:42:36;;;;;;;56.05;26.50;;;2.60;99.90;;;;;;4785464;29;20040;-79
2023/03/13 05:45:22;;;;;;;43.33;19.42;;;2.80;99.90;;;;;;4773158;30;20052;-78
2023/03/13 05:48:17;;;;;;;40.88;20.13;;;3.00;99.90;;;;;;4754290;30;20523;-77
2023/03/13 05:51:19;;;;;;;47.53;23.33;;;3.20;99.90;;;;;;4753834;30;20408;-81
2023/03/13 05:54:11;;;;;;;45.67;22.48;;;3.50;99.90;;;;;;4729053;30;20169;-79
2023/03/13 05:57:02;;;;;;;35.25;18.85;;;3.80;99.90;;;;;;4740098;30;20079;-80
2023/03/13 05:59:53;;;;;;;28.05;15.30;;;4.60;99.90;;;;;;4760503;30;20410;-79
2023/03/13 06:02:37;;;;;;;28.80;15.35;;;5.60;99.90;;;;;;4778965;29;20091;-79
2023/03/13 06:05:05;;;;;;;31.42;15.27;;;6.30;98.00;;;;;;4810524;29;20502;-75
2023/03/13 06:07:30;;;;;;;25.73;14.65;;;7.00;97.60;;;;;;4805431;29;20088;-79
2023/03/13 06:09:56;;;;;;;36.63;16.25;;;7.80;95.80;;;;;;4825962;29;20038;-80
2023/03/13 06:12:23;;;;;;;34.17;16.20;;;8.00;93.90;;;;;;4824119;29;20085;-80
2023/03/13 06:14:49;;;;;;;35.70;19.35;;;8.00;93.30;;;;;;4830929;29;20510;-79
2023/03/13 06:17:14;;;;;;;37.75;19.05;;;7.20;92.70;;;;;;4851375;29;20586;-75
2023/03/13 06:19:40;;;;;;;26.20;15.05;;;6.70;93.30;;;;;;4850600;29;20057;-74
2023/03/13 06:22:06;;;;;;;27.00;14.90;;;6.40;93.70;;;;;;4862917;29;20034;-75
2023/03/13 06:24:32;;;;;;;24.73;14.38;;;6.30;94.00;;;;;;4890032;29;20035;-80
2023/03/13 06:26:58;;;;;;;29.95;15.15;;;6.20;94.20;;;;;;4939795;29;20028;-79
2023/03/13 06:29:24;;;;;;;23.83;12.68;;;6.10;94.30;;;;;;4940875;29;20035;-79
2023/03/13 06:31:50;;;;;;;28.15;11.48;;;5.80;94.30;;;;;;4940200;29;20032;-79
2023/03/13 06:34:17;;;;;;;18.27;9.93;;;5.50;94.40;;;;;;4939804;29;20087;-78
2023/03/13 06:36:43;;;;;;;19.05;10.85;;;5.20;95.30;;;;;;4938293;29;20054;-77
2023/03/13 06:39:13;;;;;;;23.92;11.18;;;5.20;96.00;;;;;;4937820;29;20043;-79
2023/03/13 06:41:39;;;;;;;27.67;13.30;;;5.30;96.70;;;;;;4937858;29;20099;-74
2023/03/13 06:44:04;;;;;;;24.40;12.85;;;5.50;96.80;;;;;;4937726;29;20063;-80
2023/03/13 06:46:30;;;;;;;23.70;12.63;;;5.50;96.10;;;;;;4938011;29;20115;-78
2023/03/13 06:48:57;;;;;;;29.00;14.13;;;5.60;96.40;;;;;;4937527;29;20533;-79
2023/03/13 06:51:25;;;;;;;23.30;13.25;;;5.60;95.50;;;;;;4938249;29;20057;-77
2023/03/13 06:53:51;;;;;;;24.50;12.63;;;5.70;95.60;;;;;;4939322;29;20459;-80
2023/03/13 06:56:17;;;;;;;22.02;11.93;;;5.80;95.40;;;;;;4937063;29;20385;-80
2023/03/13 06:58:46;;;;;;;22.67;13.73;;;5.80;96.00;;;;;;4937880;29;20056;-80
2023/03/13 07:01:14;;;;;;;20.27;12.10;;;6.00;95.00;;;;;;4939718;29;20047;-78
2023/03/13 07:03:41;;;;;;;20.42;12.30;;;6.10;95.40;;;;;;4955978;29;20039;-76
2023/03/13 07:06:07;;;;;;;26.95;13.13;;;6.20;95.00;;;;;;4942729;29;20031;-78
2023/03/13 07:08:34;;;;;;;24.63;11.40;;;6.20;95.20;;;;;;4939070;29;20038;-77
2023/03/13 07:11:03;;;;;;;23.00;11.70;;;6.30;94.90;;;;;;4939183;29;20038;-78
2023/03/13 07:13:30;;;;;;;21.30;11.27;;;6.40;95.40;;;;;;4928921;29;20043;-79
2023/03/13 07:16:03;;;;;;;22.63;11.55;;;6.60;94.70;;;;;;4941522;29;20028;-79
2023/03/13 07:18:30;;;;;;;18.85;10.48;;;6.70;94.40;;;;;;4939272;29;20122;-79
2023/03/13 07:20:58;;;;;;;19.70;10.02;;;6.80;94.60;;;;;;4939376;29;20031;-79
2023/03/13 07:23:27;;;;;;;23.15;11.00;;;7.00;95.20;;;;;;4939699;29;20036;-75
2023/03/13 07:26:14;;;;;;;18.92;9.23;;;7.10;94.90;;;;;;4930531;29;20516;-76
2023/03/13 07:28:40;;;;;;;15.60;7.45;;;7.00;93.20;;;;;;4940548;29;20027;-79
2023/03/13 07:31:19;;;;;;;15.80;8.50;;;7.10;93.40;;;;;;4938958;29;20024;-79
2023/03/13 07:33:46;;;;;;;17.42;8.23;;;7.40;94.80;;;;;;4937074;29;20019;-73
2023/03/13 07:36:14;;;;;;;15.23;8.35;;;7.50;93.40;;;;;;4939678;29;20031;-78
2023/03/13 07:38:42;;;;;;;19.25;9.88;;;7.80;93.60;;;;;;4937679;29;20458;-79
2023/03/13 07:41:12;;;;;;;17.58;8.38;;;8.00;93.30;;;;;;4928170;29;20473;-79
2023/03/13 07:43:39;;;;;;;18.85;8.35;;;8.20;92.10;;;;;;4937896;29;20028;-78
2023/03/13 07:46:07;;;;;;;17.38;8.68;;;8.30;92.80;;;;;;4937007;29;20020;-77
2023/03/13 07:48:38;;;;;;;13.40;7.00;;;8.60;92.30;;;;;;4937709;29;20079;-76
2023/03/13 07:51:05;;;;;;;21.38;7.65;;;8.70;91.20;;;;;;4937570;29;20371;-74
2023/03/13 07:53:31;;;;;;;16.58;7.85;;;8.90;91.50;;;;;;4936606;29;20023;-81
2023/03/13 07:56:03;;;;;;;16.05;8.05;;;9.00;91.40;;;;;;4936068;29;20027;-79
2023/03/13 07:58:32;;;;;;;22.25;8.02;;;9.10;91.70;;;;;;4936368;29;20082;-77
2023/03/13 08:00:58;;;;;;;15.00;7.40;;;9.30;90.50;;;;;;4936954;29;20119;-79
2023/03/13 08:03:24;;;;;;;15.23;7.57;;;9.20;90.80;;;;;;4936781;29;20035;-78
2023/03/13 08:06:01;;;;;;;16.77;7.13;;;9.50;90.80;;;;;;4936015;29;20059;-78
2023/03/13 08:08:28;;;;;;;13.02;7.03;;;9.60;90.70;;;;;;4935699;29;20457;-79
2023/03/13 08:10:58;;;;;;;14.40;7.55;;;9.70;91.30;;;;;;4936237;29;20024;-80
2023/03/13 08:13:24;;;;;;;13.02;6.57;;;9.80;90.40;;;;;;4935765;29;20032;-73
2023/03/13 08:15:49;;;;;;;10.68;5.65;;;9.80;89.10;;;;;;4936013;29;20035;-76
2023/03/13 08:18:15;;;;;;;13.70;6.82;;;9.50;87.70;;;;;;4935844;29;20480;-79
2023/03/13 08:20:41;;;;;;;14.75;7.97;;;9.60;87.90;;;;;;4936173;29;20148;-76
2023/03/13 08:23:07;;;;;;;18.50;7.70;;;9.70;89.90;;;;;;4936069;29;20063;-79
2023/03/13 08:25:33;;;;;;;13.10;6.45;;;9.70;87.70;;;;;;4935922;29;20103;-79
2023/03/13 08:27:58;;;;;;;14.90;7.00;;;9.90;89.20;;;;;;4935832;29;20040;-72
2023/03/13 08:30:24;;;;;;;13.77;6.20;;;9.50;86.60;;;;;;4935784;29;20032;-79
2023/03/13 08:32:50;;;;;;;13.07;6.40;;;9.70;88.50;;;;;;4935760;29;20055;-78
2023/03/13 08:35:16;;;;;;;16.33;6.72;;;10.00;89.10;;;;;;4935709;29;20023;-78
2023/03/13 08:37:42;;;;;;;16.48;8.27;;;10.20;87.50;;;;;;4935372;29;20043;-79
2023/03/13 08:40:12;;;;;;;14.45;7.25;;;10.30;86.40;;;;;;4936027;29;20042;-78
2023/03/13 08:42:39;;;;;;;16.60;7.10;;;10.40;85.10;;;;;;4935835;29;20099;-80
2023/03/13 08:45:06;;;;;;;16.25;7.30;;;10.40;83.90;;;;;;4935832;29;20032;-73
2023/03/13 08:47:32;;;;;;;14.73;7.72;;;10.60;85.00;;;;;;4936980;29;20094;-78
2023/03/13 08:49:58;;;;;;;14.50;6.88;;;10.70;86.10;;;;;;4935744;29;20028;-79
2023/03/13 08:52:25;;;;;;;14.27;6.25;;;10.90;85.10;;;;;;4935761;29;20031;-78
2023/03/13 08:54:51;;;;;;;16.52;8.73;;;11.10;86.00;;;;;;4935701;29;20038;-78
2023/03/13 08:57:16;;;;;;;12.77;7.63;;;11.20;84.70;;;;;;4935511;29;20493;-77
2023/03/13 08:59:42;;;;;;;14.73;7.30;;;11.10;83.50;;;;;;4935469;29;20066;-76
2023/03/13 09:02:09;;;;;;;20.90;9.70;;;11.00;81.70;;;;;;4935329;29;20028;-78
2023/03/13 09:04:35;;;;;;;10.13;5.55;;;10.80;80.90;;;;;;4935430;29;20035;-74
2023/03/13 09:07:01;;;;;;;9.90;4.82;;;10.70;81.90;;;;;;4923156;29;20028;-79
2023/03/13 09:09:27;;;;;;;15.10;7.53;;;10.90;80.60;;;;;;4935604;29;20046;-79
2023/03/13 09:11:53;;;;;;;13.73;6.95;;;10.50;79.80;;;;;;4935266;29;20040;-74
2023/03/13 09:14:18;;;;;;;11.52;6.38;;;10.50;78.60;;;;;;4935575;29;20035;-80
2023/03/13 09:16:46;;;;;;;13.68;7.47;;;10.50;80.80;;;;;;4935229;29;20032;-75
2023/03/13 09:19:12;;;;;;;19.63;5.72;;;11.00;82.60;;;;;;4937011;29;20512;-78
2023/03/13 09:21:38;;;;;;;13.13;6.32;;;10.60;79.50;;;;;;4938810;29;20106;-77
2023/03/13 09:24:05;;;;;;;8.95;5.15;;;10.80;82.90;;;;;;4939174;29;20540;-79
2023/03/13 09:26:30;;;;;;;12.07;6.72;;;11.20;81.60;;;;;;4939026;29;20024;-78
2023/03/13 09:28:56;;;;;;;14.15;8.10;;;11.30;84.10;;;;;;4938885;29;20079;-80
2023/03/13 09:31:28;;;;;;;11.57;6.43;;;11.50;78.90;;;;;;4938745;29;20031;-78
2023/03/13 09:33:54;;;;;;;13.43;6.20;;;11.50;78.80;;;;;;4940700;29;20035;-76
2023/03/13 09:36:22;;;;;;;9.45;4.95;;;11.60;80.00;;;;;;4938985;29;20762;-78
2023/03/13 09:38:49;;;;;;;11.55;5.57;;;11.60;80.10;;;;;;4938898;29;20042;-79
2023/03/13 09:41:20;;;;;;;12.13;5.60;;;11.70;81.10;;;;;;4938810;29;20032;-78
2023/03/13 09:44:12;;;;;;;7.90;4.97;;;11.70;79.90;;;;;;4938461;29;20032;-78
2023/03/13 09:47:02;;;;;;;10.07;4.70;;;11.80;78.10;;;;;;4938489;29;20031;-78
2023/03/13 09:49:47;;;;;;;11.93;6.07;;;11.80;77.30;;;;;;4938755;29;20023;-79
2023/03/13 09:52:21;;;;;;;11.57;6.18;;;11.70;78.60;;;;;;4938743;29;20441;-78
2023/03/13 09:54:59;;;;;;;10.55;5.40;;;11.70;78.40;;;;;;4938468;29;20028;-78
2023/03/13 09:57:48;;;;;;;9.95;4.75;;;11.70;77.50;;;;;;4926810;29;20062;-77
2023/03/13 10:00:23;;;;;;;14.48;6.35;;;11.90;79.60;;;;;;4938260;29;20123;-79
2023/03/13 10:02:57;;;;;;;9.25;4.75;;;11.90;79.20;;;;;;4938433;29;20422;-78
2023/03/13 10:05:28;;;;;;;12.77;5.30;;;11.90;75.80;;;;;;4938690;29;20067;-74
2023/03/13 10:08:18;;;;;;;13.75;6.35;;;12.00;77.40;;;;;;4938181;29;20040;-77
2023/03/13 10:11:16;;;;;;;10.50;5.03;;;12.20;79.10;;;;;;4938107;29;20492;-79
2023/03/13 10:13:55;;;;;;;8.68;4.43;;;12.20;77.20;;;;;;4879273;29;20557;-78
2023/03/13 10:16:29;;;;;;;10.27;5.35;;;12.00;76.20;;;;;;4879410;29;20546;-78
2023/03/13 10:18:58;;;;;;;10.20;4.13;;;12.00;74.20;;;;;;4879824;29;20447;-77
2023/03/13 10:21:31;;;;;;;8.20;4.13;;;12.00;75.40;;;;;;4879413;29;20032;-77
2023/03/13 10:24:04;;;;;;;10.75;4.65;;;12.10;75.40;;;;;;4879377;29;20157;-78
2023/03/13 10:26:35;;;;;;;7.00;3.90;;;12.10;73.30;;;;;;4880842;29;20415;-74
2023/03/13 10:29:22;;;;;;;7.85;3.85;;;12.30;75.90;;;;;;4879094;29;20048;-78
2023/03/13 10:32:04;;;;;;;6.60;4.15;;;12.40;75.80;;;;;;4879389;29;20089;-79
2023/03/13 10:35:02;;;;;;;10.68;4.65;;;12.50;75.00;;;;;;4879040;29;20464;-77
2023/03/13 10:37:39;;;;;;;7.07;3.80;;;12.50;74.80;;;;;;4876585;29;20093;-78
2023/03/13 10:40:21;;;;;;;6.97;3.42;;;12.50;74.60;;;;;;4871806;29;20100;-78
2023/03/13 10:42:49;;;;;;;5.10;2.83;;;12.60;75.50;;;;;;4878905;29;20506;-73
2023/03/13 10:45:18;;;;;;;8.73;4.00;;;12.60;73.40;;;;;;4878825;29;20033;-77
2023/03/13 10:47:52;;;;;;;10.48;4.43;;;12.70;73.90;;;;;;4879004;29;20033;-77
2023/03/13 10:50:21;;;;;;;8.57;4.18;;;12.60;73.00;;;;;;4900648;29;20043;-78
2023/03/13 10:52:49;;;;;;;6.68;3.72;;;12.60;72.30;;;;;;4937420;29;20016;-77
2023/03/13 10:55:17;;;;;;;6.82;3.92;;;12.90;73.90;;;;;;4937324;29;20032;-78
2023/03/13 10:57:59;;;;;;;9.57;4.13;;;12.90;73.30;;;;;;4937164;29;20486;-78
2023/03/13 11:00:39;;;;;;;8.05;3.30;;;12.80;70.50;;;;;;4936750;29;20402;-79
2023/03/13 11:03:38;;;;;;;7.03;3.63;;;13.00;73.00;;;;;;4945582;29;20097;-78
2023/03/13 11:06:03;;;;;;;9.18;3.75;;;13.00;71.00;;;;;;4878561;29;20044;-77
2023/03/13 11:08:36;;;;;;;9.75;4.88;;;13.20;72.50;;;;;;4878356;29;20025;-78
2023/03/13 11:11:14;;;;;;;9.30;3.67;;;13.20;72.20;;;;;;4878500;29;20038;-78
2023/03/13 11:13:42;;;;;;;12.90;3.05;;;13.10;68.80;;;;;;4872636;29;20033;-77
2023/03/13 11:16:23;;;;;;;12.18;4.30;;;13.20;68.80;;;;;;4878363;29;20056;-78
2023/03/13 11:19:22;;;;;;;6.80;3.53;;;13.30;70.10;;;;;;4878283;29;20051;-77
2023/03/13 11:21:51;;;;;;;7.15;3.38;;;13.40;67.80;;;;;;4878076;29;20535;-79
2023/03/13 11:24:29;;;;;;;8.60;3.10;;;13.50;68.10;;;;;;4878393;29;20029;-77
2023/03/13 11:27:19;;;;;;;4.70;2.85;;;13.40;68.30;;;;;;4878135;29;20173;-78
2023/03/13 11:30:27;;;;;;;5.38;3.15;;;13.40;68.10;;;;;;4877926;29;20510;-76
2023/03/13 11:32:59;;;;;;;7.65;3.47;;;13.50;67.60;;;;;;4866017;29;20045;-78
2023/03/13 11:35:36;;;;;;;8.07;4.20;;;13.70;70.80;;;;;;4878155;29;20045;-77
2023/03/13 11:38:27;;;;;;;6.38;3.15;;;13.60;65.60;;;;;;4877823;29;20044;-78
2023/03/13 11:41:04;;;;;;;7.45;3.20;;;13.40;64.80;;;;;;4884914;29;20394;-77
2023/03/13 11:44:16;;;;;;;9.05;3.55;;;13.70;68.40;;;;;;4935648;29;20046;-78
2023/03/13 11:47:03;;;;;;;9.60;4.18;;;13.70;65.90;;;;;;4877807;29;20578;-77
2023/03/13 11:49:51;;;;;;;5.93;2.97;;;13.80;66.80;;;;;;4877682;29;20045;-76
2023/03/13 11:52:29;;;;;;;7.05;3.63;;;13.90;66.00;;;;;;4877752;29;20460;-74
2023/03/13 11:55:15;;;;;;;8.65;3.88;;;13.60;65.20;;;;;;4877498;29;20029;-79
2023/03/13 11:58:05;;;;;;;5.22;3.25;;;13.80;67.60;;;;;;4877194;29;20535;-78
2023/03/13 12:00:40;;;;;;;7.03;3.17;;;13.80;67.50;;;;;;4877391;29;20053;-77
2023/03/13 12:03:17;;;;;;;8.00;3.33;;;13.80;66.90;;;;;;4877878;29;20124;-78
2023/03/13 12:05:56;;;;;;;7.25;4.00;;;13.90;68.10;;;;;;4877826;29;20558;-77
2023/03/13 12:08:45;;;;;;;8.07;4.30;;;14.10;68.60;;;;;;4877714;29;20456;-79
2023/03/13 12:11:25;;;;;;;6.80;2.97;;;14.10;67.10;;;;;;4877559;29;20120;-78
2023/03/13 12:13:57;;;;;;;8.88;3.80;;;14.10;65.70;;;;;;4877678;29;20142;-78
2023/03/13 12:16:36;;;;;;;9.48;2.65;;;14.10;67.00;;;;;;4877484;29;20037;-75
2023/03/13 12:19:01;;;;;;;5.93;2.80;;;14.10;67.20;;;;;;4877254;29;20064;-78
2023/03/13 12:21:35;;;;;;;6.40;3.60;;;14.20;66.80;;;;;;4887099;29;20075;-77
2023/03/13 12:24:17;;;;;;;7.55;3.75;;;14.30;65.50;;;;;;4929479;29;20543;-76
2023/03/13 12:26:48;;;;;;;9.65;3.63;;;14.40;66.10;;;;;;4925562;29;20043;-78
2023/03/13 12:29:35;;;;;;;9.88;3.25;;;14.40;64.60;;;;;;4935991;29;20034;-78
2023/03/13 12:32:06;;;;;;;8.25;3.17;;;14.50;67.10;;;;;;4936220;29;20110;-79
2023/03/13 12:34:52;;;;;;;5.25;3.22;;;14.40;63.70;;;;;;4935649;29;20489;-79
2023/03/13 12:37:44;;;;;;;5.72;2.78;;;14.40;63.50;;;;;;4935705;29;20474;-78
2023/03/13 12:40:33;;;;;;;14.23;4.68;;;14.40;64.10;;;;;;4935759;29;20066;-78
2023/03/13 12:43:19;;;;;;;7.47;3.67;;;14.50;66.10;;;;;;4934324;29;20460;-78
2023/03/13 12:45:53;;;;;;;6.43;3.30;;;14.50;65.60;;;;;;4935537;29;20035;-78
2023/03/13 12:48:59;;;;;;;8.60;3.20;;;14.60;64.90;;;;;;4935452;29;20032;-78
2023/03/13 12:51:43;;;;;;;9.07;3.50;;;14.50;62.80;;;;;;4936111;29;20067;-78
2023/03/13 12:54:39;;;;;;;8.15;3.55;;;14.70;63.80;;;;;;4925520;29;20063;-79
2023/03/13 12:57:25;;;;;;;12.00;4.30;;;14.80;63.00;;;;;;4939422;29;20031;-78
2023/03/13 13:00:04;;;;;;;7.90;3.83;;;14.80;65.40;;;;;;4939252;29;20060;-76
2023/03/13 13:02:31;;;;;;;13.95;4.10;;;14.80;62.00;;;;;;4939610;29;20027;-79
2023/03/13 13:05:00;;;;;;;17.63;4.88;;;14.90;63.40;;;;;;4939391;29;20385;-77
2023/03/13 13:07:35;;;;;;;8.65;3.50;;;14.90;64.20;;;;;;4939460;29;20477;-77
2023/03/13 13:10:10;;;;;;;11.25;4.72;;;15.00;62.50;;;;;;4939254;29;20035;-77